Time;durP1;ratioP1;P1;durP2;ratioP2;P2;SDS_P1;SDS_P2;PMS_P1;PMS_P2;Temp;Humidity;BMP_temperature;BMP_pressure;BME280_temperature;BME280_humidity;BME280_pressure;Samples;Min_cycle;Max_cycle;Signal;HPM_P1;HPM_P2
2023/06/29 00:06:24;;;;;;;;;;;;;;;21.52;43.27;100292.13;41751303;28;19939;-78
2023/06/29 00:26:29;;;;;;;;;;;;;;;21.37;42.87;100300.34;41736208;28;19998;-78
2023/06/29 00:46:29;;;;;;;;;;;;;;;21.24;43.40;100312.78;41734556;28;19924;-79
2023/06/29 01:06:31;;;;;;;;;;;;;;;21.09;43.92;100299.88;41722167;28;20054;-78
2023/06/29 01:26:32;;;;;;;;;;;;;;;20.97;44.52;100285.03;41729333;28;19932;-78
2023/06/29 01:46:34;;;;;;;;;;;;;;;20.88;44.94;100285.75;41724562;28;20308;-78
2023/06/29 02:06:34;;;;;;;;;;;;;;;20.80;44.81;100286.34;41725383;28;19943;-77
2023/06/29 02:26:34;;;;;;;;;;;;;;;20.81;44.96;100302.97;41721103;28;19939;-77
2023/06/29 02:46:34;;;;;;;;;;;;;;;20.71;44.71;100293.09;41724326;28;19933;-78
2023/06/29 03:06:35;;;;;;;;;;;;;;;20.55;44.47;100292.63;41694889;28;19925;-78
2023/06/29 03:26:35;;;;;;;;;;;;;;;20.46;44.70;100281.84;41720940;28;19933;-79
2023/06/29 03:46:36;;;;;;;;;;;;;;;20.51;45.10;100309.56;41756751;28;19939;-78
2023/06/29 04:06:40;;;;;;;;;;;;;;;20.50;45.31;100315.81;41775829;28;19929;-78
2023/06/29 04:26:42;;;;;;;;;;;;;;;20.48;44.89;100306.25;41783801;28;20023;-76
2023/06/29 04:46:42;;;;;;;;;;;;;;;21.24;44.76;100305.72;41793195;28;19967;-76
2023/06/29 05:06:42;;;;;;;;;;;;;;;21.62;44.94;100281.72;41790611;28;19952;-77
2023/06/29 05:26:42;;;;;;;;;;;;;;;21.89;44.38;100289.19;41768220;28;19951;-79
2023/06/29 05:46:44;;;;;;;;;;;;;;;22.10;44.18;100294.50;41793182;28;20011;-78
2023/06/29 06:06:45;;;;;;;;;;;;;;;22.29;43.78;100293.81;41766021;28;20381;-79
2023/06/29 06:26:46;;;;;;;;;;;;;;;22.48;43.47;100297.56;41881771;28;19953;-79
2023/06/29 06:46:47;;;;;;;;;;;;;;;22.63;43.60;100298.06;41863688;28;19928;-77
2023/06/29 07:06:47;;;;;;;;;;;;;;;22.77;43.25;100302.16;41888769;28;19931;-81
2023/06/29 07:26:47;;;;;;;;;;;;;;;22.90;43.13;100299.28;41800053;28;20015;-79
2023/06/29 07:46:50;;;;;;;;;;;;;;;23.01;43.44;100313.25;41895471;28;20341;-80
2023/06/29 08:06:50;;;;;;;;;;;;;;;23.12;43.37;100300.91;41890464;28;19947;-81
2023/06/29 08:26:50;;;;;;;;;;;;;;;23.24;43.79;100297.25;41837450;28;19964;-76
2023/06/29 08:46:51;;;;;;;;;;;;;;;23.38;43.72;100289.91;41798311;28;21256;-79
2023/06/29 09:06:55;;;;;;;;;;;;;;;23.53;43.43;100290.34;41790544;28;19980;-80
2023/06/29 09:26:56;;;;;;;;;;;;;;;23.60;43.57;100279.09;41830368;28;20006;-79
2023/06/29 09:47:04;;;;;;;;;;;;;;;23.66;43.54;100281.16;41821216;28;20344;-79
2023/06/29 10:07:08;;;;;;;;;;;;;;;23.75;43.48;100282.16;41830084;28;19909;-81
2023/06/29 10:27:09;;;;;;;;;;;;;;;23.82;43.66;100285.09;41824484;28;20055;-77
2023/06/29 10:47:24;;;;;;;;;;;;;;;23.91;43.79;100272.84;41802264;28;19933;-80
2023/06/29 11:07:25;;;;;;;;;;;;;;;24.02;43.97;100270.06;41762081;28;19954;-79
2023/06/29 11:27:25;;;;;;;;;;;;;;;24.07;43.55;100256.44;41812988;28;19928;-80
2023/06/29 11:47:25;;;;;;;;;;;;;;;24.15;43.16;100248.63;41838426;28;19931;-77
2023/06/29 12:07:39;;;;;;;;;;;;;;;24.28;42.48;100240.41;41819539;28;19935;-78
2023/06/29 12:27:40;;;;;;;;;;;;;;;24.44;41.88;100215.97;41808999;28;19929;-78
2023/06/29 12:47:41;;;;;;;;;;;;;;;24.69;41.31;100203.91;41791594;28;20006;-78
2023/06/29 13:07:42;;;;;;;;;;;;;;;24.82;42.01;100184.22;41818948;28;19925;-77
2023/06/29 13:27:43;;;;;;;;;;;;;;;24.92;41.39;100166.44;41833929;28;19933;-80
2023/06/29 13:47:43;;;;;;;;;;;;;;;25.07;41.17;100164.09;41762582;28;19928;-76
2023/06/29 14:07:43;;;;;;;;;;;;;;;25.09;40.74;100146.25;41733207;28;19928;-83
2023/06/29 14:27:44;;;;;;;;;;;;;;;25.20;41.00;100135.41;41730961;28;19928;-83
2023/06/29 14:47:44;;;;;;;;;;;;;;;25.25;42.41;100119.06;41729659;28;19929;-84
2023/06/29 15:07:44;;;;;;;;;;;;;;;25.32;42.16;100112.19;41749877;28;20328;-82
2023/06/29 15:27:46;;;;;;;;;;;;;;;25.39;41.26;100105.31;41742682;28;19925;-80
2023/06/29 15:47:46;;;;;;;;;;;;;;;25.42;41.88;100091.75;41733342;28;19932;-80
2023/06/29 16:07:47;;;;;;;;;;;;;;;25.42;41.49;100085.63;41752271;28;20313;-84
2023/06/29 16:27:47;;;;;;;;;;;;;;;25.40;40.78;100077.81;41755614;28;19978;-77
2023/06/29 16:47:47;;;;;;;;;;;;;;;25.41;40.42;100076.00;41772129;28;19932;-81
2023/06/29 17:07:48;;;;;;;;;;;;;;;25.50;42.08;100071.59;41786631;28;19928;-84
2023/06/29 17:27:49;;;;;;;;;;;;;;;25.47;39.02;100072.72;41761677;28;19982;-81
2023/06/29 17:47:49;;;;;;;;;;;;;;;25.42;38.82;100075.84;41784745;28;20274;-86
2023/06/29 18:07:49;;;;;;;;;;;;;;;25.30;38.76;100069.09;41794556;28;19932;-83
2023/06/29 18:27:50;;;;;;;;;;;;;;;25.18;39.21;100080.91;41758555;28;19929;-83
2023/06/29 18:47:51;;;;;;;;;;;;;;;25.05;39.62;100089.28;41737792;28;19929;-83
2023/06/29 19:07:52;;;;;;;;;;;;;;;24.86;39.97;100096.34;41764958;28;19924;-82
2023/06/29 19:27:53;;;;;;;;;;;;;;;24.73;40.50;100104.69;41786971;28;19929;-84
2023/06/29 19:47:54;;;;;;;;;;;;;;;24.59;40.70;100105.97;41793180;28;20636;-81
2023/06/29 20:07:55;;;;;;;;;;;;;;;24.44;41.34;100120.69;41772210;28;20011;-81
2023/06/29 20:27:56;;;;;;;;;;;;;;;24.32;42.02;100125.34;41790507;28;20365;-78
2023/06/29 20:47:56;;;;;;;;;;;;;;;24.31;42.92;100126.31;41788090;28;20419;-80
2023/06/29 21:07:56;;;;;;;;;;;;;;;24.16;43.79;100128.59;41763563;28;19984;-80
2023/06/29 21:27:57;;;;;;;;;;;;;;;23.93;44.28;100139.53;41787347;28;20293;-80
2023/06/29 21:47:57;;;;;;;;;;;;;;;23.74;45.32;100140.38;41764050;28;20033;-80
2023/06/29 22:07:57;;;;;;;;;;;;;;;23.58;46.12;100148.91;41784374;28;19929;-81
2023/06/29 22:27:58;;;;;;;;;;;;;;;23.45;46.50;100154.47;41825338;28;19924;-80
2023/06/29 22:48:00;;;;;;;;;;;;;;;23.29;47.13;100155.00;41822352;28;19924;-77
2023/06/29 23:08:00;;;;;;;;;;;;;;;23.12;48.01;100150.34;41806801;28;19957;-80
2023/06/29 23:28:03;;;;;;;;;;;;;;;22.96;48.20;100143.81;41755846;28;19928;-78
2023/06/29 23:48:03;;;;;;;;;;;;;;;22.79;48.93;100139.19;41761360;28;19971;-79
